createdAt,value
2018-07-27T00:00:00.838Z,36.90
2018-07-27T00:02:29.633Z,36.30
2018-07-27T00:04:58.507Z,36.80
2018-07-27T00:07:27.372Z,37.10
2018-07-27T00:09:56.928Z,36.90
2018-07-27T00:12:25.849Z,37.00
2018-07-27T00:14:54.687Z,37.30
2018-07-27T00:17:23.539Z,37.30
2018-07-27T00:19:52.458Z,37.60
2018-07-27T00:22:21.451Z,37.60
2018-07-27T00:24:50.286Z,37.90
2018-07-27T00:27:19.137Z,38.00
2018-07-27T00:29:48.005Z,38.20
2018-07-27T00:32:16.818Z,38.10
2018-07-27T00:34:45.653Z,38.30
2018-07-27T00:37:14.524Z,38.60
2018-07-27T00:39:43.340Z,38.90
2018-07-27T00:42:12.157Z,38.80
2018-07-27T00:44:41.055Z,38.80
2018-07-27T00:47:09.928Z,39.00
2018-07-27T00:49:38.730Z,39.20
2018-07-27T00:52:07.574Z,39.40
2018-07-27T00:54:36.390Z,39.20
2018-07-27T00:57:05.561Z,39.00
2018-07-27T00:59:34.606Z,38.90
2018-07-27T01:02:03.648Z,39.20
2018-07-27T01:04:32.463Z,38.80
2018-07-27T01:07:01.331Z,39.30
2018-07-27T01:09:30.143Z,39.80
2018-07-27T01:11:59.044Z,40.00
2018-07-27T01:14:27.890Z,40.00
2018-07-27T01:16:56.704Z,40.10
2018-07-27T01:19:25.588Z,40.30
2018-07-27T01:21:54.487Z,40.50
2018-07-27T01:24:23.292Z,40.40
2018-07-27T01:26:52.100Z,39.90
2018-07-27T01:29:20.961Z,40.20
2018-07-27T01:31:49.762Z,40.30
2018-07-27T01:34:18.612Z,40.70
2018-07-27T01:36:47.432Z,40.90
2018-07-27T01:39:16.316Z,40.90
2018-07-27T01:41:45.167Z,40.70
2018-07-27T01:44:14.012Z,41.20
2018-07-27T01:46:42.825Z,41.50
2018-07-27T01:49:11.717Z,41.60
2018-07-27T01:54:09.126Z,41.60
2018-07-27T01:56:38.021Z,41.30
2018-07-27T01:59:06.869Z,41.00
2018-07-27T02:01:35.673Z,41.60
2018-07-27T02:04:04.534Z,41.80
2018-07-27T02:06:33.403Z,42.10
2018-07-27T02:09:02.284Z,42.30
2018-07-27T02:11:31.091Z,42.50
2018-07-27T02:13:59.908Z,42.40
2018-07-27T02:16:28.736Z,42.70
2018-07-27T02:18:57.573Z,42.70
2018-07-27T02:21:26.396Z,42.70
2018-07-27T02:23:55.248Z,42.80
2018-07-27T02:26:24.079Z,42.70
2018-07-27T02:28:52.908Z,42.40
2018-07-27T02:31:21.700Z,42.30
2018-07-27T02:36:19.007Z,43.20
2018-07-27T02:38:47.791Z,43.30
2018-07-27T02:41:16.640Z,43.80
2018-07-27T02:43:45.488Z,43.50
2018-07-27T02:46:14.608Z,44.00
2018-07-27T02:48:43.494Z,43.20
2018-07-27T02:51:12.317Z,44.20
2018-07-27T02:53:41.112Z,44.20
2018-07-27T02:56:09.950Z,43.90
2018-07-27T02:58:38.768Z,44.40
2018-07-27T03:01:07.689Z,44.50
2018-07-27T03:03:36.527Z,44.50
2018-07-27T03:06:05.408Z,44.70
2018-07-27T03:08:34.223Z,44.60
2018-07-27T03:11:03.048Z,44.90
2018-07-27T03:13:31.866Z,44.80
2018-07-27T03:16:00.677Z,44.70
2018-07-27T03:18:29.750Z,45.00
2018-07-27T03:20:58.900Z,45.50
2018-07-27T03:23:27.753Z,45.60
2018-07-27T03:25:56.672Z,45.80
2018-07-27T03:28:25.522Z,45.80
2018-07-27T03:30:54.397Z,46.10
2018-07-27T03:33:23.248Z,46.10
2018-07-27T03:35:52.083Z,46.40
2018-07-27T03:38:21.004Z,46.50
2018-07-27T03:40:49.776Z,46.40
2018-07-27T03:43:18.595Z,46.50
2018-07-27T03:45:47.465Z,46.70
2018-07-27T03:48:16.301Z,46.90
2018-07-27T03:50:45.137Z,46.70
2018-07-27T03:53:13.953Z,47.00
2018-07-27T03:55:42.782Z,47.00
2018-07-27T03:58:11.631Z,47.10
2018-07-27T04:00:40.452Z,47.00
2018-07-27T04:03:09.278Z,47.10
2018-07-27T04:05:38.071Z,47.30
2018-07-27T04:08:06.924Z,47.50
2018-07-27T04:10:35.795Z,47.60
2018-07-27T04:13:05.180Z,47.80
2018-07-27T04:15:34.033Z,47.30
2018-07-27T04:18:03.148Z,47.50
2018-07-27T04:20:32.075Z,47.60
2018-07-27T04:23:00.899Z,47.60
2018-07-27T04:25:29.743Z,47.80
2018-07-27T04:27:59.500Z,47.70
2018-07-27T04:30:28.339Z,48.10
2018-07-27T04:32:57.179Z,48.30
2018-07-27T04:35:25.988Z,48.40
2018-07-27T04:37:54.896Z,48.40
2018-07-27T04:40:23.714Z,48.30
2018-07-27T04:42:52.552Z,48.40
2018-07-27T04:45:21.364Z,48.70
2018-07-27T04:47:50.193Z,48.90
2018-07-27T04:50:19.015Z,48.80
2018-07-27T04:52:47.831Z,49.00
2018-07-27T04:55:16.652Z,49.00
2018-07-27T04:57:45.459Z,49.00
2018-07-27T05:00:14.292Z,48.90
2018-07-27T05:02:43.384Z,48.80
2018-07-27T05:05:12.254Z,48.50
2018-07-27T05:07:41.190Z,48.40
2018-07-27T05:10:15.503Z,48.20
2018-07-27T05:12:44.353Z,48.00
2018-07-27T05:15:13.660Z,47.80
2018-07-27T05:17:42.556Z,47.60
2018-07-27T05:20:11.684Z,47.20
2018-07-27T05:22:40.552Z,46.90
2018-07-27T05:25:09.502Z,46.70
2018-07-27T05:27:38.335Z,46.50
2018-07-27T05:30:07.172Z,46.00
2018-07-27T05:32:35.983Z,45.80
2018-07-27T05:35:05.388Z,45.70
2018-07-27T05:37:34.211Z,45.40
2018-07-27T05:40:03.068Z,45.20
2018-07-27T05:42:31.900Z,44.70
2018-07-27T05:45:00.766Z,44.50
2018-07-27T05:47:29.579Z,44.10
2018-07-27T05:49:59.766Z,43.80
2018-07-27T05:52:28.856Z,43.50
2018-07-27T05:54:57.677Z,43.20
2018-07-27T05:57:26.499Z,42.70
2018-07-27T05:59:55.368Z,42.50
2018-07-27T06:02:24.218Z,42.20
2018-07-27T06:04:53.087Z,41.70
2018-07-27T06:07:21.912Z,41.50
2018-07-27T06:09:50.717Z,41.10
2018-07-27T06:12:19.620Z,40.80
2018-07-27T06:14:48.471Z,40.50
2018-07-27T06:17:17.293Z,40.30
2018-07-27T06:19:46.184Z,39.90
2018-07-27T06:22:15.022Z,39.40
2018-07-27T06:24:48.668Z,39.20
2018-07-27T06:27:18.117Z,38.90
2018-07-27T06:29:48.644Z,38.50
2018-07-27T06:32:18.083Z,38.10
2018-07-27T06:34:47.060Z,37.70
2018-07-27T06:37:16.002Z,37.50
2018-07-27T06:39:46.023Z,37.30
2018-07-27T06:42:15.408Z,36.90
2018-07-27T06:44:44.284Z,36.40
2018-07-27T06:47:13.439Z,36.00
2018-07-27T06:49:42.576Z,35.80
2018-07-27T06:52:11.382Z,35.40
2018-07-27T06:54:40.544Z,35.10
2018-07-27T06:57:09.583Z,34.70
2018-07-27T06:59:38.780Z,34.40
2018-07-27T07:02:08.716Z,34.10
2018-07-27T07:04:38.314Z,34.00
2018-07-27T07:07:07.432Z,34.30
2018-07-27T07:09:36.861Z,33.30
2018-07-27T07:12:05.811Z,33.30
2018-07-27T07:14:34.803Z,33.00
2018-07-27T07:17:04.524Z,32.40
2018-07-27T07:19:33.573Z,32.10
2018-07-27T07:22:02.520Z,31.90
2018-07-27T07:24:31.706Z,31.60
2018-07-27T07:27:00.895Z,31.40
2018-07-27T07:29:30.039Z,31.50
2018-07-27T07:31:59.133Z,31.50
2018-07-27T07:36:56.627Z,30.70
2018-07-27T07:39:26.481Z,30.40
2018-07-27T07:41:55.342Z,30.00
2018-07-27T07:44:24.240Z,29.90
2018-07-27T07:46:53.143Z,29.50
2018-07-27T07:49:22.723Z,29.80
2018-07-27T07:51:52.744Z,29.70
2018-07-27T07:54:21.589Z,29.30
2018-07-27T07:56:50.573Z,29.00
2018-07-27T07:59:19.405Z,28.60
2018-07-27T08:01:48.302Z,28.90
2018-07-27T08:04:17.143Z,28.30
2018-07-27T08:06:45.972Z,28.40
2018-07-27T08:09:14.884Z,27.50
2018-07-27T08:11:43.714Z,27.70
2018-07-27T08:14:12.511Z,28.20
2018-07-27T08:16:41.390Z,27.80
2018-07-27T08:19:10.370Z,27.80
2018-07-27T08:21:40.330Z,27.60
2018-07-27T08:24:09.279Z,27.40
2018-07-27T08:26:42.121Z,27.40
2018-07-27T08:29:12.040Z,27.00
2018-07-27T08:31:42.263Z,26.90
2018-07-27T08:34:11.672Z,26.30
2018-07-27T08:36:40.620Z,26.50
2018-07-27T08:39:10.508Z,25.50
2018-07-27T08:41:40.216Z,25.50
2018-07-27T08:44:10.415Z,26.00
2018-07-27T08:46:39.547Z,25.40
2018-07-27T08:49:08.869Z,25.10
2018-07-27T08:51:37.873Z,25.80
2018-07-27T08:54:06.895Z,25.50
2018-07-27T08:56:35.809Z,25.30
2018-07-27T08:59:04.997Z,25.40
2018-07-27T09:01:33.880Z,25.20
2018-07-27T09:04:03.092Z,25.00
2018-07-27T09:06:32.007Z,24.80
2018-07-27T09:09:00.889Z,25.10
2018-07-27T09:11:29.728Z,24.60
2018-07-27T09:13:58.562Z,24.70
2018-07-27T09:16:27.421Z,25.00
2018-07-27T09:18:56.296Z,24.90
2018-07-27T09:21:25.377Z,24.90
2018-07-27T09:23:54.218Z,24.90
2018-07-27T09:26:23.060Z,24.50
2018-07-27T09:28:52.109Z,23.90
2018-07-27T09:31:20.973Z,23.70
2018-07-27T09:33:49.828Z,23.70
2018-07-27T09:36:18.681Z,23.70
2018-07-27T09:38:47.521Z,23.20
2018-07-27T09:41:16.603Z,23.30
2018-07-27T09:43:45.522Z,23.50
2018-07-27T09:46:14.396Z,23.20
2018-07-27T09:48:48.146Z,23.20
2018-07-27T09:51:17.045Z,23.30
2018-07-27T09:53:45.887Z,23.20
2018-07-27T09:56:14.774Z,22.60
2018-07-27T09:58:43.651Z,22.10
2018-07-27T10:03:46.578Z,22.80
2018-07-27T10:06:15.468Z,22.70
2018-07-27T10:08:44.432Z,23.00
2018-07-27T10:11:14.171Z,23.40
2018-07-27T10:13:42.999Z,22.60
2018-07-27T10:16:11.860Z,22.20
2018-07-27T10:18:40.703Z,21.90
2018-07-27T10:21:09.728Z,22.30
2018-07-27T10:23:38.608Z,21.70
2018-07-27T10:26:08.297Z,22.60
2018-07-27T10:28:37.087Z,22.10
2018-07-27T10:31:05.970Z,21.60
2018-07-27T10:33:34.810Z,22.20
2018-07-27T10:36:04.692Z,22.50
2018-07-27T10:38:33.609Z,22.40
2018-07-27T10:41:02.480Z,22.00
2018-07-27T10:43:32.312Z,21.30
2018-07-27T10:46:01.305Z,21.50
2018-07-27T10:48:30.243Z,20.90
2018-07-27T10:50:59.138Z,19.60
2018-07-27T10:53:27.981Z,19.60
2018-07-27T10:55:56.856Z,19.40
2018-07-27T10:58:25.647Z,19.80
2018-07-27T11:00:54.487Z,19.90
2018-07-27T11:03:23.376Z,20.10
2018-07-27T11:05:52.253Z,19.90
2018-07-27T11:08:21.079Z,19.20
2018-07-27T11:10:49.959Z,19.40
2018-07-27T11:13:18.860Z,19.70
2018-07-27T11:15:47.828Z,21.30
2018-07-27T11:18:16.720Z,20.60
2018-07-27T11:20:45.780Z,20.10
2018-07-27T11:23:14.639Z,20.10
2018-07-27T11:25:43.535Z,18.90
2018-07-27T11:28:12.372Z,18.00
2018-07-27T11:30:41.270Z,18.60
2018-07-27T11:33:10.888Z,18.30
2018-07-27T11:35:39.871Z,18.30
2018-07-27T11:38:08.765Z,19.20
2018-07-27T11:40:37.639Z,19.20
2018-07-27T11:43:06.826Z,18.80
2018-07-27T11:45:36.244Z,19.40
2018-07-27T11:48:05.264Z,18.90
2018-07-27T11:50:34.149Z,18.80
2018-07-27T11:53:03.016Z,18.20
2018-07-27T11:55:32.052Z,19.50
2018-07-27T11:58:01.522Z,18.80
2018-07-27T12:00:30.341Z,19.50
2018-07-27T12:02:59.201Z,19.30
2018-07-27T12:05:28.070Z,18.80
2018-07-27T12:07:56.908Z,19.00
2018-07-27T12:10:26.580Z,18.50
2018-07-27T12:12:55.483Z,18.60
2018-07-27T12:15:24.412Z,18.90
2018-07-27T12:20:22.470Z,18.90
2018-07-27T12:22:52.113Z,19.00
2018-07-27T12:25:20.968Z,18.30
2018-07-27T12:27:49.812Z,19.30
2018-07-27T12:30:18.683Z,19.00
2018-07-27T12:32:47.596Z,18.30
2018-07-27T12:35:16.427Z,17.60
2018-07-27T12:37:45.332Z,18.90
2018-07-27T12:40:16.534Z,19.60
2018-07-27T12:42:45.479Z,18.50
2018-07-27T12:45:14.255Z,18.80
2018-07-27T12:47:43.088Z,18.00
2018-07-27T12:50:12.957Z,18.60
2018-07-27T12:52:41.808Z,17.90
2018-07-27T12:55:10.628Z,17.50
2018-07-27T12:57:39.577Z,18.90
2018-07-27T13:00:08.845Z,17.90
2018-07-27T13:02:38.421Z,18.00
2018-07-27T13:05:07.340Z,18.30
2018-07-27T13:07:36.173Z,18.30
2018-07-27T13:10:06.731Z,18.70
2018-07-27T13:12:37.128Z,18.30
2018-07-27T13:15:07.012Z,19.10
2018-07-27T13:17:35.863Z,18.60
2018-07-27T13:20:05.325Z,17.60
2018-07-27T13:22:34.251Z,18.00
2018-07-27T13:25:03.402Z,17.40
2018-07-27T13:27:32.190Z,16.80
2018-07-27T13:30:01.114Z,16.40
2018-07-27T13:32:30.109Z,16.20
2018-07-27T13:34:59.933Z,18.00
2018-07-27T13:40:01.235Z,17.20
2018-07-27T13:42:31.315Z,18.40
2018-07-27T13:45:00.188Z,18.20
2018-07-27T13:47:29.063Z,16.90
2018-07-27T13:49:57.893Z,17.80
2018-07-27T13:52:26.748Z,17.90
2018-07-27T13:54:55.603Z,17.20
2018-07-27T13:57:24.481Z,18.00
2018-07-27T13:59:53.331Z,17.00
2018-07-27T14:04:50.672Z,16.30
2018-07-27T14:07:19.529Z,16.00
2018-07-27T14:09:48.499Z,16.90
2018-07-27T14:12:17.342Z,15.80
2018-07-27T14:14:46.207Z,15.80
2018-07-27T14:17:15.060Z,15.40
2018-07-27T14:19:43.927Z,14.70
2018-07-27T14:22:12.801Z,14.30
2018-07-27T14:24:41.664Z,16.00
2018-07-27T14:27:10.539Z,15.10
2018-07-27T14:29:39.438Z,15.80
2018-07-27T14:32:08.274Z,16.00
2018-07-27T14:34:37.094Z,16.00
2018-07-27T14:37:06.016Z,16.10
2018-07-27T14:39:34.904Z,16.70
2018-07-27T14:42:04.653Z,17.30
2018-07-27T14:44:33.550Z,16.00
2018-07-27T14:47:02.422Z,16.30
2018-07-27T14:49:31.333Z,16.50
2018-07-27T14:52:02.355Z,17.10
2018-07-27T14:54:31.863Z,15.00
2018-07-27T14:57:00.787Z,14.30
2018-07-27T14:59:29.700Z,14.40
2018-07-27T15:01:59.072Z,15.00
2018-07-27T15:04:27.965Z,14.30
2018-07-27T15:06:56.824Z,14.60
2018-07-27T15:09:25.775Z,15.30
2018-07-27T15:11:54.984Z,15.60
2018-07-27T15:14:23.890Z,15.50
2018-07-27T15:16:52.727Z,15.80
2018-07-27T15:19:21.572Z,16.50
2018-07-27T15:21:50.527Z,15.10
2018-07-27T15:24:20.732Z,14.10
2018-07-27T15:26:49.556Z,15.40
2018-07-27T15:29:19.937Z,15.60
2018-07-27T15:31:50.343Z,16.80
2018-07-27T15:34:19.213Z,16.80
2018-07-27T15:36:48.097Z,14.40
2018-07-27T15:39:16.966Z,14.00
2018-07-27T15:41:45.901Z,14.20
2018-07-27T15:44:14.739Z,15.50
2018-07-27T15:46:43.657Z,15.20
2018-07-27T15:49:13.556Z,14.40
2018-07-27T15:51:43.577Z,14.40
2018-07-27T15:54:12.482Z,14.20
2018-07-27T15:56:41.743Z,14.80
2018-07-27T15:59:10.631Z,15.80
2018-07-27T16:01:39.475Z,15.20
2018-07-27T16:04:08.346Z,16.50
2018-07-27T16:06:37.234Z,15.20
2018-07-27T16:09:07.896Z,14.50
2018-07-27T16:11:36.779Z,14.80
2018-07-27T16:14:05.721Z,14.50
2018-07-27T16:16:34.846Z,14.70
2018-07-27T16:19:04.475Z,15.50
2018-07-27T16:21:33.315Z,16.40
2018-07-27T16:24:02.425Z,17.40
2018-07-27T16:26:31.327Z,16.00
2018-07-27T16:29:00.246Z,16.30
2018-07-27T16:31:29.079Z,17.60
2018-07-27T16:33:58.020Z,16.80
2018-07-27T16:36:26.849Z,16.80
2018-07-27T16:38:55.709Z,16.10
2018-07-27T16:41:24.621Z,17.00
2018-07-27T16:43:53.479Z,17.80
2018-07-27T16:46:23.169Z,17.20
2018-07-27T16:48:52.003Z,17.60
2018-07-27T16:51:20.940Z,16.90
2018-07-27T16:53:51.147Z,16.00
2018-07-27T16:56:20.116Z,17.00
2018-07-27T16:58:49.011Z,16.10
2018-07-27T17:01:18.012Z,16.50
2018-07-27T17:03:46.930Z,15.40
2018-07-27T17:06:15.836Z,16.90
2018-07-27T17:08:44.651Z,16.80
2018-07-27T17:11:13.521Z,15.60
2018-07-27T17:13:42.382Z,15.90
2018-07-27T17:16:11.272Z,15.40
2018-07-27T17:18:40.085Z,15.90
2018-07-27T17:21:09.198Z,16.00
2018-07-27T17:23:38.147Z,16.50
2018-07-27T17:26:07.033Z,16.70
2018-07-27T17:28:35.975Z,15.90
2018-07-27T17:31:04.785Z,15.90
2018-07-27T17:33:33.690Z,15.30
2018-07-27T17:36:03.088Z,15.90
2018-07-27T17:38:31.979Z,16.00
2018-07-27T17:41:00.840Z,15.70
2018-07-27T17:43:30.139Z,16.70
2018-07-27T17:45:59.125Z,16.80
2018-07-27T17:48:28.028Z,17.70
2018-07-27T17:50:56.852Z,17.80
2018-07-27T17:53:25.683Z,17.50
2018-07-27T17:58:23.127Z,17.70
2018-07-27T18:00:51.958Z,17.90
2018-07-27T18:03:20.792Z,16.80
2018-07-27T18:05:49.652Z,17.50
2018-07-27T18:08:18.479Z,17.00
2018-07-27T18:10:47.287Z,16.70
2018-07-27T18:13:16.178Z,16.20
2018-07-27T18:15:44.999Z,16.30
2018-07-27T18:18:13.927Z,17.10
2018-07-27T18:23:11.727Z,16.80
2018-07-27T18:25:40.882Z,16.60
2018-07-27T18:28:09.717Z,17.20
2018-07-27T18:30:38.639Z,17.10
2018-07-27T18:33:08.370Z,17.30
2018-07-27T18:35:37.467Z,17.90
2018-07-27T18:38:06.975Z,17.90
2018-07-27T18:40:36.179Z,17.40
2018-07-27T18:43:05.038Z,17.60
2018-07-27T18:45:33.889Z,17.70
2018-07-27T18:48:02.719Z,18.20
2018-07-27T18:50:31.614Z,17.80
2018-07-27T18:53:01.446Z,18.10
2018-07-27T18:55:30.285Z,18.70
2018-07-27T18:57:59.150Z,18.40
2018-07-27T19:00:28.119Z,18.70
2018-07-27T19:02:57.320Z,18.80
2018-07-27T19:05:27.363Z,19.00
2018-07-27T19:07:56.611Z,19.30
2018-07-27T19:12:54.716Z,19.40
2018-07-27T19:15:23.913Z,19.60
2018-07-27T19:17:53.031Z,19.80
2018-07-27T19:20:21.999Z,19.90
2018-07-27T19:22:50.832Z,20.00
2018-07-27T19:25:19.731Z,20.10
2018-07-27T19:30:17.143Z,20.50
2018-07-27T19:32:45.998Z,20.70
2018-07-27T19:35:14.792Z,20.90
2018-07-27T19:37:43.615Z,21.00
2018-07-27T19:40:12.455Z,21.20
2018-07-27T19:42:41.309Z,21.40
2018-07-27T19:45:10.179Z,21.60
2018-07-27T19:47:39.149Z,21.70
2018-07-27T19:50:08.244Z,21.80
2018-07-27T19:52:37.424Z,21.90
2018-07-27T19:55:06.254Z,22.00
2018-07-27T19:57:35.108Z,22.10
2018-07-27T20:00:06.507Z,22.20
2018-07-27T20:02:35.410Z,22.20
2018-07-27T20:05:04.804Z,22.30
2018-07-27T20:07:33.701Z,22.50
2018-07-27T20:10:02.685Z,22.60
2018-07-27T20:12:32.164Z,22.70
2018-07-27T20:15:01.003Z,22.90
2018-07-27T20:17:30.282Z,22.90
2018-07-27T20:19:59.188Z,23.10
2018-07-27T20:22:28.063Z,23.20
2018-07-27T20:24:56.923Z,23.20
2018-07-27T20:27:26.108Z,23.30
2018-07-27T20:29:55.187Z,23.40
2018-07-27T20:32:24.107Z,23.60
2018-07-27T20:34:53.002Z,23.60
2018-07-27T20:37:21.911Z,23.70
2018-07-27T20:39:50.756Z,23.80
2018-07-27T20:42:19.627Z,23.90
2018-07-27T20:44:48.508Z,24.00
2018-07-27T20:47:17.393Z,24.10
2018-07-27T20:49:46.563Z,24.20
2018-07-27T20:52:15.498Z,24.30
2018-07-27T20:54:44.436Z,24.40
2018-07-27T20:57:13.419Z,24.60
2018-07-27T20:59:42.957Z,24.60
2018-07-27T21:02:12.318Z,24.80
2018-07-27T21:04:41.133Z,24.90
2018-07-27T21:07:10.329Z,25.20
2018-07-27T21:09:39.383Z,25.30
2018-07-27T21:12:08.630Z,25.50
2018-07-27T21:14:38.485Z,25.60
2018-07-27T21:17:07.417Z,25.70
2018-07-27T21:22:05.882Z,25.60
2018-07-27T21:24:34.800Z,26.50
2018-07-27T21:27:03.700Z,25.90
2018-07-27T21:29:32.610Z,26.00
2018-07-27T21:32:01.479Z,26.10
2018-07-27T21:34:30.352Z,26.30
2018-07-27T21:36:59.224Z,26.60
2018-07-27T21:39:28.123Z,26.80
2018-07-27T21:41:57.057Z,27.00
2018-07-27T21:44:25.910Z,27.00
2018-07-27T21:46:54.753Z,27.20
2018-07-27T21:49:23.592Z,27.00
2018-07-27T21:51:52.479Z,27.30
2018-07-27T21:54:21.372Z,26.70
2018-07-27T21:56:50.260Z,26.90
2018-07-27T21:59:19.939Z,27.00
2018-07-27T22:01:48.798Z,27.40
2018-07-27T22:04:17.713Z,27.50
2018-07-27T22:06:46.724Z,27.60
2018-07-27T22:09:15.603Z,27.70
2018-07-27T22:11:44.538Z,28.00
2018-07-27T22:14:13.399Z,28.20
2018-07-27T22:16:42.284Z,28.10
2018-07-27T22:19:11.198Z,28.20
2018-07-27T22:21:40.579Z,28.30
2018-07-27T22:24:09.404Z,28.70
2018-07-27T22:26:38.318Z,28.80
2018-07-27T22:29:07.287Z,29.20
2018-07-27T22:31:36.210Z,28.90
2018-07-27T22:34:05.132Z,29.10
2018-07-27T22:36:33.972Z,29.20
2018-07-27T22:39:11.047Z,29.30
2018-07-27T22:41:40.311Z,29.60
2018-07-27T22:44:09.249Z,30.00
2018-07-27T22:46:38.200Z,30.10
2018-07-27T22:49:07.064Z,30.30
2018-07-27T22:51:35.895Z,30.40
2018-07-27T22:54:04.940Z,30.60
2018-07-27T22:56:33.779Z,30.70
2018-07-27T22:59:02.667Z,30.80
2018-07-27T23:01:31.600Z,31.10
2018-07-27T23:04:00.453Z,31.40
2018-07-27T23:06:29.284Z,31.80
2018-07-27T23:08:58.136Z,32.10
2018-07-27T23:13:55.465Z,31.60
2018-07-27T23:16:24.333Z,32.00
2018-07-27T23:18:53.187Z,32.10
2018-07-27T23:21:22.065Z,32.40
2018-07-27T23:23:50.964Z,32.60
2018-07-27T23:26:19.817Z,31.80
2018-07-27T23:28:48.681Z,32.90
2018-07-27T23:31:17.549Z,33.40
2018-07-27T23:33:46.998Z,33.80
2018-07-27T23:36:16.065Z,34.00
2018-07-27T23:38:44.922Z,34.30
2018-07-27T23:41:14.328Z,34.60
2018-07-27T23:46:11.726Z,33.70
2018-07-27T23:48:40.635Z,34.60
2018-07-27T23:51:09.478Z,35.00
2018-07-27T23:53:38.936Z,35.20
2018-07-27T23:56:07.882Z,35.30
2018-07-27T23:58:36.732Z,35.40
